createdAt,value
2022-10-03T00:01:53.909Z,101478.94
2022-10-03T00:04:38.483Z,101479.47
2022-10-03T00:07:19.742Z,101482.22
2022-10-03T00:10:02.868Z,101485.75
2022-10-03T00:12:47.274Z,101476.09
2022-10-03T00:15:21.994Z,101482.28
2022-10-03T00:18:02.166Z,101478.00
2022-10-03T00:20:50.250Z,101484.81
2022-10-03T00:23:25.455Z,101485.38
2022-10-03T00:26:26.303Z,101483.13
2022-10-03T00:29:11.838Z,101486.66
2022-10-03T00:31:48.804Z,101492.56
2022-10-03T00:34:27.176Z,101494.00
2022-10-03T00:37:22.531Z,101492.41
2022-10-03T00:40:31.133Z,101495.09
2022-10-03T00:43:28.694Z,101497.19
2022-10-03T00:46:22.422Z,101497.50
2022-10-03T00:49:24.903Z,101504.53
2022-10-03T00:52:07.112Z,101504.53
2022-10-03T00:55:01.577Z,101502.97
2022-10-03T00:57:57.634Z,101498.34
2022-10-03T01:00:29.207Z,101507.59
2022-10-03T01:03:17.776Z,101513.78
2022-10-03T01:05:54.014Z,101517.41
2022-10-03T01:08:41.832Z,101515.72
2022-10-03T01:11:22.522Z,101518.81
2022-10-03T01:14:05.928Z,101519.50
2022-10-03T01:16:44.850Z,101523.72
2022-10-03T01:19:32.912Z,101519.69
2022-10-03T01:22:17.210Z,101524.16
2022-10-03T01:24:53.566Z,101528.94
2022-10-03T01:27:33.151Z,101525.28
2022-10-03T01:30:22.989Z,101526.41
2022-10-03T01:32:57.445Z,101532.03
2022-10-03T01:35:37.520Z,101531.03
2022-10-03T01:38:15.565Z,101533.00
2022-10-03T01:40:51.515Z,101540.56
2022-10-03T01:43:22.320Z,101537.50
2022-10-03T01:46:02.020Z,101537.63
2022-10-03T01:48:41.218Z,101541.00
2022-10-03T01:51:12.906Z,101539.88
2022-10-03T01:53:51.315Z,101542.69
2022-10-03T01:56:26.798Z,101543.81
2022-10-03T01:59:01.480Z,101554.47
2022-10-03T02:01:44.763Z,101559.50
2022-10-03T02:04:21.720Z,101558.94
2022-10-03T02:06:59.561Z,101556.28
2022-10-03T02:09:36.455Z,101554.72
2022-10-03T02:12:10.181Z,101558.41
2022-10-03T02:14:54.616Z,101552.78
2022-10-03T02:17:30.504Z,101548.84
2022-10-03T02:20:07.931Z,101549.53
2022-10-03T02:22:42.575Z,101555.31
2022-10-03T02:25:22.864Z,101553.59
2022-10-03T02:28:21.649Z,101544.63
2022-10-03T02:31:33.393Z,101545.22
2022-10-03T02:34:25.514Z,101550.22
2022-10-03T02:37:38.287Z,101537.34
2022-10-03T02:40:37.122Z,101528.91
2022-10-03T02:43:26.379Z,101536.50
2022-10-03T02:46:41.129Z,101534.81
2022-10-03T02:49:44.718Z,101535.91
2022-10-03T02:52:26.659Z,101533.38
2022-10-03T02:55:16.898Z,101533.38
2022-10-03T02:58:17.286Z,101538.28
2022-10-03T03:01:20.784Z,101553.41
2022-10-03T03:04:11.866Z,101545.41
2022-10-03T03:06:58.608Z,101549.50
2022-10-03T03:10:01.578Z,101555.38
2022-10-03T03:12:56.626Z,101563.63
2022-10-03T03:16:11.502Z,101563.63
2022-10-03T03:18:45.338Z,101565.31
2022-10-03T03:21:22.185Z,101573.41
2022-10-03T03:24:15.666Z,101580.16
2022-10-03T03:27:05.949Z,101577.94
2022-10-03T03:29:43.361Z,101573.84
2022-10-03T03:32:24.348Z,101581.81
2022-10-03T03:34:59.918Z,101574.13
2022-10-03T03:37:35.808Z,101581.13
2022-10-03T03:40:32.345Z,101574.81
2022-10-03T03:43:16.302Z,101584.63
2022-10-03T03:45:54.355Z,101580.69
2022-10-03T03:48:44.128Z,101579.59
2022-10-03T03:51:23.054Z,101581.25
2022-10-03T03:54:27.672Z,101576.91
2022-10-03T03:57:16.047Z,101591.28
2022-10-03T04:00:02.666Z,101596.75
2022-10-03T04:02:45.037Z,101599.00
2022-10-03T04:05:26.086Z,101600.00
2022-10-03T04:08:12.384Z,101595.53
2022-10-03T04:10:53.288Z,101609.09
2022-10-03T04:13:33.308Z,101604.72
2022-10-03T04:16:42.028Z,101609.25
2022-10-03T04:19:17.716Z,101605.50
2022-10-03T04:22:06.187Z,101611.91
2022-10-03T04:24:56.665Z,101615.13
2022-10-03T04:27:38.395Z,101619.34
2022-10-03T04:30:14.792Z,101615.22
2022-10-03T04:32:56.585Z,101618.69
2022-10-03T04:35:37.492Z,101619.94
2022-10-03T04:38:14.167Z,101629.75
2022-10-03T04:40:51.540Z,101625.97
2022-10-03T04:43:34.680Z,101618.69
2022-10-03T04:46:17.609Z,101615.59
2022-10-03T04:48:54.185Z,101619.22
2022-10-03T04:51:41.886Z,101627.63
2022-10-03T04:54:21.368Z,101620.31
2022-10-03T04:56:57.078Z,101626.59
2022-10-03T04:59:36.041Z,101617.88
2022-10-03T05:02:12.744Z,101622.41
2022-10-03T05:04:47.079Z,101629.25
2022-10-03T05:07:21.668Z,101614.94
2022-10-03T05:09:55.599Z,101628.88
2022-10-03T05:12:35.381Z,101632.22
2022-10-03T05:15:18.304Z,101632.63
2022-10-03T05:17:53.112Z,101640.53
2022-10-03T05:20:36.326Z,101637.88
2022-10-03T05:23:17.764Z,101645.03
2022-10-03T05:26:16.299Z,101645.25
2022-10-03T05:28:51.855Z,101644.50
2022-10-03T05:31:33.694Z,101635.41
2022-10-03T05:34:17.615Z,101647.88
2022-10-03T05:37:09.325Z,101644.84
2022-10-03T05:39:47.014Z,101656.88
2022-10-03T05:42:36.049Z,101655.06
2022-10-03T05:45:07.632Z,101664.25
2022-10-03T05:47:49.855Z,101655.13
2022-10-03T05:50:42.971Z,101656.75
2022-10-03T05:53:53.565Z,101652.88
2022-10-03T05:56:41.112Z,101663.69
2022-10-03T05:59:33.560Z,101671.28
2022-10-03T06:02:36.456Z,101672.84
2022-10-03T06:05:16.407Z,101677.91
2022-10-03T06:08:06.461Z,101684.75
2022-10-03T06:10:44.917Z,101687.22
2022-10-03T06:13:20.489Z,101685.41
2022-10-03T06:16:00.642Z,101689.53
2022-10-03T06:19:06.641Z,101680.16
2022-10-03T06:22:07.603Z,101684.44
2022-10-03T06:25:07.875Z,101685.81
2022-10-03T06:28:11.382Z,101695.66
2022-10-03T06:31:02.678Z,101699.50
2022-10-03T06:34:13.277Z,101701.50
2022-10-03T06:37:01.128Z,101700.09
2022-10-03T06:40:10.202Z,101698.28
2022-10-03T06:43:13.618Z,101698.97
2022-10-03T06:46:04.382Z,101694.81
2022-10-03T06:49:03.394Z,101700.13
2022-10-03T06:51:54.297Z,101693.19
2022-10-03T06:55:04.388Z,101690.75
2022-10-03T06:58:02.348Z,101694.69
2022-10-03T07:00:49.328Z,101697.81
2022-10-03T07:03:49.272Z,101698.66
2022-10-03T07:06:31.845Z,101698.59
2022-10-03T07:09:32.976Z,101697.66
2022-10-03T07:12:33.621Z,101692.22
2022-10-03T07:15:57.782Z,101693.41
2022-10-03T07:18:53.930Z,101689.91
2022-10-03T07:21:53.097Z,101690.75
2022-10-03T07:24:41.477Z,101696.41
2022-10-03T07:27:33.400Z,101703.81
2022-10-03T07:30:14.471Z,101707.63
2022-10-03T07:33:27.570Z,101703.72
2022-10-03T07:36:49.139Z,101707.78
2022-10-03T07:39:42.202Z,101716.06
2022-10-03T07:42:52.658Z,101719.88
2022-10-03T07:45:38.001Z,101725.91
2022-10-03T07:48:53.164Z,101736.00
2022-10-03T07:51:30.302Z,101737.28
2022-10-03T07:54:30.687Z,101745.28
2022-10-03T07:57:13.072Z,101742.88
2022-10-03T08:00:05.617Z,101734.03
2022-10-03T08:03:06.053Z,101744.59
2022-10-03T08:05:50.565Z,101747.00
2022-10-03T08:08:43.140Z,101741.72
2022-10-03T08:11:37.759Z,101750.97
2022-10-03T08:14:20.236Z,101746.25
2022-10-03T08:17:23.399Z,101751.31
2022-10-03T08:20:13.023Z,101745.84
2022-10-03T08:22:56.944Z,101741.38
2022-10-03T08:25:46.404Z,101751.06
2022-10-03T08:28:43.083Z,101750.19
2022-10-03T08:31:46.600Z,101745.41
2022-10-03T08:34:59.653Z,101748.22
2022-10-03T08:37:55.611Z,101748.47
2022-10-03T08:40:57.758Z,101745.59
2022-10-03T08:43:54.573Z,101748.47
2022-10-03T08:46:47.158Z,101748.69
2022-10-03T08:49:37.855Z,101736.97
2022-10-03T08:52:21.324Z,101732.06
2022-10-03T08:55:31.115Z,101732.03
2022-10-03T08:58:21.735Z,101722.28
2022-10-03T09:01:19.803Z,101721.00
2022-10-03T09:04:24.419Z,101715.19
2022-10-03T09:07:17.184Z,101719.81
2022-10-03T09:10:16.370Z,101718.50
2022-10-03T09:13:07.428Z,101722.22
2022-10-03T09:16:08.163Z,101722.38
2022-10-03T09:18:56.865Z,101728.91
2022-10-03T09:21:51.423Z,101730.69
2022-10-03T09:24:51.325Z,101728.59
2022-10-03T09:27:44.413Z,101726.22
2022-10-03T09:30:23.982Z,101730.28
2022-10-03T09:33:45.218Z,101736.63
2022-10-03T09:36:37.232Z,101741.97
2022-10-03T09:39:26.390Z,101740.22
2022-10-03T09:42:26.820Z,101736.56
2022-10-03T09:45:35.001Z,101738.78
2022-10-03T09:48:17.638Z,101728.75
2022-10-03T09:51:15.347Z,101734.22
2022-10-03T09:54:12.513Z,101733.19
2022-10-03T09:57:04.182Z,101733.66
2022-10-03T09:59:46.397Z,101740.44
2022-10-03T10:02:41.666Z,101746.97
2022-10-03T10:05:47.576Z,101743.03
2022-10-03T10:08:48.584Z,101741.56
2022-10-03T10:11:42.228Z,101742.78
2022-10-03T10:14:25.729Z,101740.72
2022-10-03T10:17:38.870Z,101736.78
2022-10-03T10:20:23.774Z,101725.28
2022-10-03T10:23:34.364Z,101720.28
2022-10-03T10:26:46.821Z,101720.09
2022-10-03T10:29:40.895Z,101708.44
2022-10-03T10:32:54.413Z,101715.38
2022-10-03T10:36:02.310Z,101721.28
2022-10-03T10:39:02.759Z,101722.97
2022-10-03T10:42:03.610Z,101723.59
2022-10-03T10:45:03.597Z,101728.50
2022-10-03T10:48:16.835Z,101731.25
2022-10-03T10:51:23.303Z,101717.63
2022-10-03T10:54:48.985Z,101720.84
2022-10-03T10:57:26.746Z,101727.75
2022-10-03T11:00:29.185Z,101727.09
2022-10-03T11:03:30.271Z,101722.34
2022-10-03T11:06:32.474Z,101724.16
2022-10-03T11:09:38.196Z,101730.00
2022-10-03T11:12:45.666Z,101720.88
2022-10-03T11:15:43.393Z,101726.09
2022-10-03T11:18:45.868Z,101720.34
2022-10-03T11:22:00.598Z,101714.28
2022-10-03T11:24:56.647Z,101717.56
2022-10-03T11:27:59.398Z,101721.19
2022-10-03T11:31:14.822Z,101721.16
2022-10-03T11:34:23.702Z,101712.72
2022-10-03T11:37:07.672Z,101716.09
2022-10-03T11:39:48.156Z,101712.97
2022-10-03T11:42:32.791Z,101701.44
2022-10-03T11:45:03.517Z,101702.31
2022-10-03T11:47:52.680Z,101708.56
2022-10-03T11:50:36.401Z,101706.91
2022-10-03T11:53:15.872Z,101701.97
2022-10-03T11:55:48.443Z,101705.00
2022-10-03T11:58:33.952Z,101693.31
2022-10-03T12:01:27.844Z,101693.06
2022-10-03T12:04:03.173Z,101699.81
2022-10-03T12:07:18.134Z,101684.38
2022-10-03T12:09:57.039Z,101689.06
2022-10-03T12:12:35.930Z,101694.25
2022-10-03T12:15:18.102Z,101690.03
2022-10-03T12:17:55.537Z,101686.38
2022-10-03T12:20:28.530Z,101678.47
2022-10-03T12:23:03.493Z,101683.72
2022-10-03T12:25:34.778Z,101678.66
2022-10-03T12:28:16.385Z,101687.41
2022-10-03T12:30:50.427Z,101681.78
2022-10-03T12:33:44.691Z,101682.59
2022-10-03T12:36:16.138Z,101683.22
2022-10-03T12:39:10.403Z,101679.00
2022-10-03T12:42:06.065Z,101677.13
2022-10-03T12:44:47.638Z,101676.09
2022-10-03T12:47:51.040Z,101665.00
2022-10-03T12:50:31.033Z,101674.53
2022-10-03T12:53:25.176Z,101670.47
2022-10-03T12:56:07.994Z,101668.97
2022-10-03T12:58:49.095Z,101666.63
2022-10-03T13:01:26.993Z,101665.25
2022-10-03T13:03:58.236Z,101657.06
2022-10-03T13:07:01.699Z,101663.44
2022-10-03T13:09:42.786Z,101657.63
2022-10-03T13:12:25.523Z,101655.44
2022-10-03T13:15:41.496Z,101647.59
2022-10-03T13:18:22.502Z,101642.22
2022-10-03T13:20:59.746Z,101646.25
2022-10-03T13:23:38.145Z,101651.13
2022-10-03T13:26:17.913Z,101643.59
2022-10-03T13:29:13.173Z,101643.28
2022-10-03T13:31:56.047Z,101652.00
2022-10-03T13:34:28.720Z,101638.94
2022-10-03T13:37:04.922Z,101639.28
2022-10-03T13:39:46.049Z,101637.50
2022-10-03T13:42:19.258Z,101635.97
2022-10-03T13:44:54.424Z,101639.00
2022-10-03T13:47:39.726Z,101637.31
2022-10-03T13:50:16.934Z,101637.31
2022-10-03T13:52:47.555Z,101627.28
2022-10-03T13:55:26.324Z,101629.78
2022-10-03T13:58:11.478Z,101627.63
2022-10-03T14:00:52.416Z,101628.63
2022-10-03T14:03:28.634Z,101643.91
2022-10-03T14:06:06.306Z,101637.00
2022-10-03T14:09:00.071Z,101626.28
2022-10-03T14:11:39.588Z,101638.00
2022-10-03T14:14:34.321Z,101634.00
2022-10-03T14:17:10.181Z,101634.16
2022-10-03T14:19:52.289Z,101618.75
2022-10-03T14:22:43.211Z,101625.59
2022-10-03T14:25:22.337Z,101615.94
2022-10-03T14:27:55.403Z,101614.09
2022-10-03T14:30:25.255Z,101619.47
2022-10-03T14:33:10.800Z,101628.38
2022-10-03T14:35:44.057Z,101630.00
2022-10-03T14:39:00.629Z,101624.47
2022-10-03T14:41:39.997Z,101630.69
2022-10-03T14:44:13.489Z,101622.47
2022-10-03T14:46:47.368Z,101620.91
2022-10-03T14:49:48.490Z,101628.66
2022-10-03T14:52:21.709Z,101616.56
2022-10-03T14:54:54.308Z,101625.13
2022-10-03T14:57:39.650Z,101618.06
2022-10-03T15:00:27.864Z,101616.69
2022-10-03T15:02:55.916Z,101607.16
2022-10-03T15:05:36.295Z,101601.13
2022-10-03T15:08:14.416Z,101611.53
2022-10-03T15:10:46.094Z,101609.19
2022-10-03T15:13:19.073Z,101608.50
2022-10-03T15:15:48.724Z,101600.81
2022-10-03T15:18:19.521Z,101606.81
2022-10-03T15:20:49.191Z,101600.97
2022-10-03T15:23:22.069Z,101608.50
2022-10-03T15:25:54.659Z,101605.31
2022-10-03T15:28:26.211Z,101603.78
2022-10-03T15:30:56.692Z,101602.28
2022-10-03T15:33:32.215Z,101592.38
2022-10-03T15:36:14.570Z,101591.50
2022-10-03T15:38:46.604Z,101590.16
2022-10-03T15:41:17.569Z,101585.97
2022-10-03T15:43:52.306Z,101595.19
2022-10-03T15:46:30.336Z,101598.50
2022-10-03T15:49:02.369Z,101595.63
2022-10-03T15:51:32.812Z,101600.63
2022-10-03T15:54:02.609Z,101593.75
2022-10-03T15:56:37.916Z,101599.94
2022-10-03T15:59:09.506Z,101603.97
2022-10-03T16:01:40.486Z,101600.75
2022-10-03T16:04:17.006Z,101606.63
2022-10-03T16:06:50.928Z,101605.59
2022-10-03T16:09:27.389Z,101598.88
2022-10-03T16:12:08.927Z,101603.41
2022-10-03T16:14:42.698Z,101600.03
2022-10-03T16:17:17.615Z,101589.78
2022-10-03T16:19:54.161Z,101584.75
2022-10-03T16:22:25.999Z,101583.56
2022-10-03T16:25:07.394Z,101585.53
2022-10-03T16:27:41.442Z,101580.66
2022-10-03T16:30:29.090Z,101584.16
2022-10-03T16:33:17.623Z,101584.34
2022-10-03T16:35:48.964Z,101576.63
2022-10-03T16:38:24.357Z,101578.63
2022-10-03T16:40:56.500Z,101582.63
2022-10-03T16:43:26.660Z,101589.44
2022-10-03T16:45:56.534Z,101583.88
2022-10-03T16:48:45.615Z,101584.19
2022-10-03T16:51:20.999Z,101586.50
2022-10-03T16:53:51.629Z,101587.81
2022-10-03T16:56:24.239Z,101586.47
2022-10-03T16:58:55.618Z,101589.13
2022-10-03T17:01:32.977Z,101584.41
2022-10-03T17:04:20.666Z,101576.41
2022-10-03T17:06:50.241Z,101577.53
2022-10-03T17:09:25.784Z,101578.69
2022-10-03T17:11:56.449Z,101574.97
2022-10-03T17:14:28.916Z,101576.81
2022-10-03T17:17:02.822Z,101569.09
2022-10-03T17:19:35.564Z,101566.28
2022-10-03T17:22:14.155Z,101564.75
2022-10-03T17:24:47.785Z,101560.41
2022-10-03T17:27:22.652Z,101564.75
2022-10-03T17:29:58.345Z,101563.69
2022-10-03T17:32:31.534Z,101558.09
2022-10-03T17:35:04.318Z,101553.88
2022-10-03T17:38:44.485Z,101555.72
2022-10-03T17:41:14.956Z,101549.63
2022-10-03T17:43:49.227Z,101549.53
2022-10-03T17:46:24.499Z,101553.81
2022-10-03T17:48:56.253Z,101549.63
2022-10-03T17:51:32.406Z,101553.13
2022-10-03T17:54:04.191Z,101547.25
2022-10-03T17:56:34.227Z,101551.91
2022-10-03T17:59:05.971Z,101552.75
2022-10-03T18:01:40.492Z,101554.34
2022-10-03T18:04:17.202Z,101551.19
2022-10-03T18:06:48.715Z,101555.97
2022-10-03T18:09:26.307Z,101549.84
2022-10-03T18:11:59.999Z,101553.50
2022-10-03T18:14:37.525Z,101550.13
2022-10-03T18:17:13.482Z,101538.47
2022-10-03T18:19:55.815Z,101542.97
2022-10-03T18:22:31.501Z,101549.16
2022-10-03T18:25:28.178Z,101551.72
2022-10-03T18:28:14.870Z,101548.84
2022-10-03T18:30:48.061Z,101543.34
2022-10-03T18:33:20.723Z,101553.31
2022-10-03T18:35:50.452Z,101550.44
2022-10-03T18:38:22.145Z,101548.19
2022-10-03T18:40:53.430Z,101541.16
2022-10-03T18:43:29.295Z,101540.94
2022-10-03T18:46:15.378Z,101549.38
2022-10-03T18:49:30.132Z,101547.00
2022-10-03T18:51:57.945Z,101547.00
2022-10-03T18:54:35.953Z,101535.94
2022-10-03T18:57:10.417Z,101536.78
2022-10-03T18:59:46.380Z,101539.91
2022-10-03T19:02:21.386Z,101540.78
2022-10-03T19:04:55.466Z,101545.41
2022-10-03T19:07:25.577Z,101544.34
2022-10-03T19:10:19.389Z,101544.19
2022-10-03T19:12:49.997Z,101548.09
2022-10-03T19:15:22.369Z,101543.88
2022-10-03T19:18:04.071Z,101539.84
2022-10-03T19:20:37.808Z,101536.31
2022-10-03T19:23:10.623Z,101547.00
2022-10-03T19:25:41.270Z,101547.84
2022-10-03T19:28:18.091Z,101535.78
2022-10-03T19:30:47.529Z,101534.78
2022-10-03T19:33:21.757Z,101537.16
2022-10-03T19:35:54.443Z,101551.78
2022-10-03T19:38:27.499Z,101551.50
2022-10-03T19:41:00.178Z,101539.59
2022-10-03T19:43:37.100Z,101538.31
2022-10-03T19:46:13.845Z,101537.22
2022-10-03T19:48:49.094Z,101530.09
2022-10-03T19:51:25.251Z,101536.28
2022-10-03T19:53:54.865Z,101533.88
2022-10-03T19:56:25.310Z,101528.03
2022-10-03T19:59:02.433Z,101522.44
2022-10-03T20:01:36.351Z,101521.34
2022-10-03T20:04:04.012Z,101520.78
2022-10-03T20:06:39.619Z,101522.88
2022-10-03T20:09:17.933Z,101525.53
2022-10-03T20:11:47.535Z,101516.03
2022-10-03T20:14:17.425Z,101522.88
2022-10-03T20:16:49.391Z,101529.75
2022-10-03T20:19:23.458Z,101538.88
2022-10-03T20:21:57.577Z,101538.88
2022-10-03T20:24:32.723Z,101535.22
2022-10-03T20:27:12.197Z,101537.63
2022-10-03T20:29:46.970Z,101530.59
2022-10-03T20:32:17.319Z,101521.34
2022-10-03T20:34:52.294Z,101517.53
2022-10-03T20:37:38.343Z,101518.56
2022-10-03T20:40:20.887Z,101514.94
2022-10-03T20:42:50.662Z,101516.88
2022-10-03T20:45:23.184Z,101512.94
2022-10-03T20:47:59.298Z,101511.81
2022-10-03T20:50:31.606Z,101512.66
2022-10-03T20:53:02.684Z,101503.56
2022-10-03T20:55:35.683Z,101503.44
2022-10-03T20:58:13.505Z,101508.75
2022-10-03T21:00:49.295Z,101515.47
2022-10-03T21:03:27.447Z,101506.78
2022-10-03T21:05:58.540Z,101511.41
2022-10-03T21:08:30.921Z,101510.84
2022-10-03T21:11:02.063Z,101513.94
2022-10-03T21:13:34.359Z,101514.94
2022-10-03T21:16:04.038Z,101509.28
2022-10-03T21:18:35.713Z,101503.97
2022-10-03T21:21:08.730Z,101507.91
2022-10-03T21:23:42.421Z,101505.13
2022-10-03T21:26:11.747Z,101493.19
2022-10-03T21:28:39.556Z,101502.84
2022-10-03T21:31:38.781Z,101506.81
2022-10-03T21:34:16.883Z,101501.69
2022-10-03T21:36:52.747Z,101494.16
2022-10-03T21:39:33.487Z,101490.47
2022-10-03T21:42:11.735Z,101486.84
2022-10-03T21:44:55.379Z,101495.78
2022-10-03T21:47:34.548Z,101488.50
2022-10-03T21:50:06.840Z,101491.59
2022-10-03T21:52:49.453Z,101488.22
2022-10-03T21:55:51.824Z,101491.16
2022-10-03T21:58:36.637Z,101494.66
2022-10-03T22:01:12.041Z,101493.56
2022-10-03T22:03:46.379Z,101494.66
2022-10-03T22:06:20.073Z,101489.75
2022-10-03T22:08:48.971Z,101484.56
2022-10-03T22:11:30.895Z,101481.19
2022-10-03T22:14:10.192Z,101500.78
2022-10-03T22:16:46.322Z,101493.34
2022-10-03T22:19:21.409Z,101483.97
2022-10-03T22:22:18.688Z,101473.03
2022-10-03T22:24:56.564Z,101476.03
2022-10-03T22:27:33.535Z,101464.66
2022-10-03T22:30:06.206Z,101460.72
2022-10-03T22:32:39.871Z,101455.69
2022-10-03T22:35:19.975Z,101448.84
2022-10-03T22:37:47.853Z,101456.25
2022-10-03T22:40:15.694Z,101460.16
2022-10-03T22:42:56.603Z,101459.59
2022-10-03T22:45:28.113Z,101452.19
2022-10-03T22:47:59.493Z,101452.59
2022-10-03T22:50:32.335Z,101455.94
2022-10-03T22:53:02.132Z,101442.75
2022-10-03T22:55:31.469Z,101441.38
2022-10-03T22:58:02.094Z,101434.78
2022-10-03T23:00:35.640Z,101430.59
2022-10-03T23:03:08.036Z,101424.41
2022-10-03T23:05:57.540Z,101423.00
2022-10-03T23:08:36.842Z,101423.00
2022-10-03T23:11:10.579Z,101418.66
2022-10-03T23:13:42.048Z,101424.69
2022-10-03T23:16:23.442Z,101419.38
2022-10-03T23:19:05.345Z,101412.38
2022-10-03T23:21:34.264Z,101405.78
2022-10-03T23:24:08.394Z,101407.44
2022-10-03T23:27:23.569Z,101402.41
2022-10-03T23:30:53.897Z,101402.69
2022-10-03T23:33:53.439Z,101398.19
2022-10-03T23:36:25.263Z,101393.59
2022-10-03T23:39:01.507Z,101393.59
2022-10-03T23:41:58.682Z,101391.19
2022-10-03T23:44:49.333Z,101409.66
2022-10-03T23:47:21.278Z,101411.63
2022-10-03T23:49:51.290Z,101405.84
2022-10-03T23:52:23.662Z,101406.69
2022-10-03T23:54:54.337Z,101403.31
2022-10-03T23:57:26.538Z,101401.66
2022-10-03T23:59:54.139Z,101408.66
